LFBM 221630Z AUTO 27005KT CAVOK 17/07 Q1033 NOSIG

ElémentsDécodage
LFBM Station météo située sur l'aérodrome de MONT-DE-MARSAN
221630Z émis le 22 du mois à 16h30 UTC
AUTO Bulletin édité par un automate
27005KT vent du 270°, 05 noeuds
CAVOK Ceiling And Visibility OK
- Visibilité de 10 Km ou plus
- Pas de nuage au-dessous de 1500m ou au-dessous de l'altitude minimale du secteur la plus élevée (si>1500m) et absence de CB
- pas de temps présent significatif
17/07 température 17°C, point de rosée 07°C
 soit une humidité relative de 52%
Q1033 la pression au niveau de la mer (QNH) est de 1033 hPa
NOSIG Pas de changement significatif prévu au cours des deux heures suivant l'heure de l'observation